Terminal Aerodrome Forecast
Issued by NWS

Home | Current Version | Previous Version | Text Only | Print | Product List | Glossary Off
Versions: 1 2 3 4 5 6 7 8 9 10 11 12 13 14 15 16 17 18

000
FTUS43 KTOP 291831 AAA
TAFMHK
TAF AMD
KMHK 291831Z 2919/3018 06009KT P6SM BKN020
     FM292000 07006KT P6SM SCT030
     FM300300 VRB03KT P6SM BKN120=

USA.gov is the U.S. government's official web portal to all federal, state and local government web resources and services.